sensor_id;sensor_type;location;lat;lon;timestamp;P1;durP1;ratioP1;P2;durP2;ratioP2
51451;SDS011;37521;52.020;-1.740;2023-04-08T00:00:24;0.20;;;0.20;;
51451;SDS011;37521;52.020;-1.740;2023-04-08T00:02:52;0.63;;;0.40;;
51451;SDS011;37521;52.020;-1.740;2023-04-08T00:05:21;0.50;;;0.50;;
51451;SDS011;37521;52.020;-1.740;2023-04-08T00:07:49;1.05;;;0.93;;
51451;SDS011;37521;52.020;-1.740;2023-04-08T00:10:19;0.52;;;0.40;;
51451;SDS011;37521;52.020;-1.740;2023-04-08T00:12:47;0.90;;;0.63;;
51451;SDS011;37521;52.020;-1.740;2023-04-08T00:15:15;1.27;;;1.00;;
51451;SDS011;37521;52.020;-1.740;2023-04-08T00:17:43;1.98;;;0.95;;
51451;SDS011;37521;52.020;-1.740;2023-04-08T00:20:12;0.43;;;0.43;;
51451;SDS011;37521;52.020;-1.740;2023-04-08T00:22:41;0.68;;;0.65;;
51451;SDS011;37521;52.020;-1.740;2023-04-08T00:25:09;2.78;;;0.65;;
51451;SDS011;37521;52.020;-1.740;2023-04-08T00:27:38;0.95;;;0.80;;
51451;SDS011;37521;52.020;-1.740;2023-04-08T00:30:06;1.65;;;1.08;;
51451;SDS011;37521;52.020;-1.740;2023-04-08T00:32:35;2.85;;;1.05;;
51451;SDS011;37521;52.020;-1.740;2023-04-08T00:35:04;1.45;;;0.80;;
51451;SDS011;37521;52.020;-1.740;2023-04-08T00:37:33;1.92;;;0.82;;
51451;SDS011;37521;52.020;-1.740;2023-04-08T00:40:01;2.33;;;1.23;;
51451;SDS011;37521;52.020;-1.740;2023-04-08T00:42:29;0.98;;;0.80;;
51451;SDS011;37521;52.020;-1.740;2023-04-08T00:44:59;4.00;;;0.90;;
51451;SDS011;37521;52.020;-1.740;2023-04-08T00:47:27;1.23;;;0.63;;
51451;SDS011;37521;52.020;-1.740;2023-04-08T00:49:56;0.63;;;0.60;;
51451;SDS011;37521;52.020;-1.740;2023-04-08T00:52:24;1.63;;;0.98;;
51451;SDS011;37521;52.020;-1.740;2023-04-08T00:54:52;3.28;;;0.95;;
51451;SDS011;37521;52.020;-1.740;2023-04-08T00:57:20;0.60;;;0.60;;
51451;SDS011;37521;52.020;-1.740;2023-04-08T00:59:49;1.88;;;0.80;;
51451;SDS011;37521;52.020;-1.740;2023-04-08T01:02:20;0.50;;;0.50;;
51451;SDS011;37521;52.020;-1.740;2023-04-08T01:04:58;0.55;;;0.50;;
51451;SDS011;37521;52.020;-1.740;2023-04-08T01:07:30;1.85;;;0.95;;
51451;SDS011;37521;52.020;-1.740;2023-04-08T01:10:01;0.22;;;0.22;;
51451;SDS011;37521;52.020;-1.740;2023-04-08T01:12:32;0.95;;;0.70;;
51451;SDS011;37521;52.020;-1.740;2023-04-08T01:15:07;1.33;;;0.60;;
51451;SDS011;37521;52.020;-1.740;2023-04-08T01:17:39;0.70;;;0.70;;
51451;SDS011;37521;52.020;-1.740;2023-04-08T01:20:09;1.50;;;0.47;;
51451;SDS011;37521;52.020;-1.740;2023-04-08T01:22:43;0.55;;;0.43;;
51451;SDS011;37521;52.020;-1.740;2023-04-08T01:25:21;1.88;;;0.63;;
51451;SDS011;37521;52.020;-1.740;2023-04-08T01:27:54;0.45;;;0.43;;
51451;SDS011;37521;52.020;-1.740;2023-04-08T01:30:25;0.73;;;0.40;;
51451;SDS011;37521;52.020;-1.740;2023-04-08T01:32:56;2.08;;;0.95;;
51451;SDS011;37521;52.020;-1.740;2023-04-08T01:35:26;0.70;;;0.47;;
51451;SDS011;37521;52.020;-1.740;2023-04-08T01:37:56;0.52;;;0.45;;
51451;SDS011;37521;52.020;-1.740;2023-04-08T01:40:25;0.50;;;0.50;;
51451;SDS011;37521;52.020;-1.740;2023-04-08T01:42:56;0.50;;;0.50;;
51451;SDS011;37521;52.020;-1.740;2023-04-08T01:45:25;0.90;;;0.47;;
51451;SDS011;37521;52.020;-1.740;2023-04-08T01:47:55;0.60;;;0.60;;
51451;SDS011;37521;52.020;-1.740;2023-04-08T01:50:25;0.35;;;0.35;;
51451;SDS011;37521;52.020;-1.740;2023-04-08T01:52:55;0.50;;;0.50;;
51451;SDS011;37521;52.020;-1.740;2023-04-08T01:55:26;0.30;;;0.30;;
51451;SDS011;37521;52.020;-1.740;2023-04-08T01:57:57;0.40;;;0.25;;
51451;SDS011;37521;52.020;-1.740;2023-04-08T02:00:28;0.50;;;0.30;;
51451;SDS011;37521;52.020;-1.740;2023-04-08T02:02:57;0.55;;;0.32;;
51451;SDS011;37521;52.020;-1.740;2023-04-08T02:05:27;0.88;;;0.60;;
51451;SDS011;37521;52.020;-1.740;2023-04-08T02:07:55;2.05;;;0.68;;
51451;SDS011;37521;52.020;-1.740;2023-04-08T02:10:26;0.40;;;0.40;;
51451;SDS011;37521;52.020;-1.740;2023-04-08T02:12:55;0.38;;;0.30;;
51451;SDS011;37521;52.020;-1.740;2023-04-08T02:15:24;0.80;;;0.32;;
51451;SDS011;37521;52.020;-1.740;2023-04-08T02:17:58;0.40;;;0.40;;
51451;SDS011;37521;52.020;-1.740;2023-04-08T02:20:34;0.40;;;0.40;;
51451;SDS011;37521;52.020;-1.740;2023-04-08T02:23:06;0.80;;;0.50;;
51451;SDS011;37521;52.020;-1.740;2023-04-08T02:25:37;0.45;;;0.40;;
51451;SDS011;37521;52.020;-1.740;2023-04-08T02:28:11;0.32;;;0.30;;
51451;SDS011;37521;52.020;-1.740;2023-04-08T02:30:41;0.40;;;0.22;;
51451;SDS011;37521;52.020;-1.740;2023-04-08T02:33:13;0.85;;;0.70;;
51451;SDS011;37521;52.020;-1.740;2023-04-08T02:35:44;0.47;;;0.47;;
51451;SDS011;37521;52.020;-1.740;2023-04-08T02:38:14;0.82;;;0.35;;
51451;SDS011;37521;52.020;-1.740;2023-04-08T02:40:42;0.85;;;0.68;;
51451;SDS011;37521;52.020;-1.740;2023-04-08T02:43:12;1.50;;;0.63;;
51451;SDS011;37521;52.020;-1.740;2023-04-08T02:45:40;1.08;;;0.50;;
51451;SDS011;37521;52.020;-1.740;2023-04-08T02:48:09;0.73;;;0.63;;
51451;SDS011;37521;52.020;-1.740;2023-04-08T02:50:37;0.80;;;0.47;;
51451;SDS011;37521;52.020;-1.740;2023-04-08T02:53:06;1.17;;;0.40;;
51451;SDS011;37521;52.020;-1.740;2023-04-08T02:55:36;1.15;;;0.63;;
51451;SDS011;37521;52.020;-1.740;2023-04-08T02:58:05;0.45;;;0.45;;
51451;SDS011;37521;52.020;-1.740;2023-04-08T03:00:34;0.40;;;0.40;;
51451;SDS011;37521;52.020;-1.740;2023-04-08T03:03:05;0.55;;;0.55;;
51451;SDS011;37521;52.020;-1.740;2023-04-08T03:05:33;0.80;;;0.80;;
51451;SDS011;37521;52.020;-1.740;2023-04-08T03:08:01;1.15;;;0.80;;
51451;SDS011;37521;52.020;-1.740;2023-04-08T03:10:29;0.40;;;0.40;;
51451;SDS011;37521;52.020;-1.740;2023-04-08T03:12:57;0.60;;;0.47;;
51451;SDS011;37521;52.020;-1.740;2023-04-08T03:15:26;1.77;;;0.50;;
51451;SDS011;37521;52.020;-1.740;2023-04-08T03:17:55;0.43;;;0.43;;
51451;SDS011;37521;52.020;-1.740;2023-04-08T03:20:23;0.65;;;0.65;;
51451;SDS011;37521;52.020;-1.740;2023-04-08T03:22:51;0.63;;;0.47;;
51451;SDS011;37521;52.020;-1.740;2023-04-08T03:25:19;1.75;;;0.80;;
51451;SDS011;37521;52.020;-1.740;2023-04-08T03:27:48;0.55;;;0.55;;
51451;SDS011;37521;52.020;-1.740;2023-04-08T03:30:16;0.50;;;0.50;;
51451;SDS011;37521;52.020;-1.740;2023-04-08T03:32:44;1.45;;;0.80;;
51451;SDS011;37521;52.020;-1.740;2023-04-08T03:35:14;0.85;;;0.60;;
51451;SDS011;37521;52.020;-1.740;2023-04-08T03:37:42;0.60;;;0.60;;
51451;SDS011;37521;52.020;-1.740;2023-04-08T03:40:11;1.08;;;0.63;;
51451;SDS011;37521;52.020;-1.740;2023-04-08T03:42:39;0.75;;;0.75;;
51451;SDS011;37521;52.020;-1.740;2023-04-08T03:45:07;1.05;;;0.60;;
51451;SDS011;37521;52.020;-1.740;2023-04-08T03:47:36;1.42;;;0.82;;
51451;SDS011;37521;52.020;-1.740;2023-04-08T03:50:04;0.80;;;0.80;;
51451;SDS011;37521;52.020;-1.740;2023-04-08T03:52:34;1.15;;;1.05;;
51451;SDS011;37521;52.020;-1.740;2023-04-08T03:55:02;0.60;;;0.40;;
51451;SDS011;37521;52.020;-1.740;2023-04-08T03:57:31;2.92;;;0.40;;
51451;SDS011;37521;52.020;-1.740;2023-04-08T03:59:59;0.63;;;0.60;;
51451;SDS011;37521;52.020;-1.740;2023-04-08T04:02:37;0.57;;;0.55;;
51451;SDS011;37521;52.020;-1.740;2023-04-08T04:05:06;0.98;;;0.50;;
51451;SDS011;37521;52.020;-1.740;2023-04-08T04:07:36;0.57;;;0.57;;
51451;SDS011;37521;52.020;-1.740;2023-04-08T04:10:04;1.02;;;0.50;;
51451;SDS011;37521;52.020;-1.740;2023-04-08T04:12:33;0.25;;;0.25;;
51451;SDS011;37521;52.020;-1.740;2023-04-08T04:15:01;0.68;;;0.68;;
51451;SDS011;37521;52.020;-1.740;2023-04-08T04:17:29;1.23;;;0.63;;
51451;SDS011;37521;52.020;-1.740;2023-04-08T04:19:57;1.02;;;0.80;;
51451;SDS011;37521;52.020;-1.740;2023-04-08T04:22:25;0.45;;;0.40;;
51451;SDS011;37521;52.020;-1.740;2023-04-08T04:24:55;1.25;;;0.52;;
51451;SDS011;37521;52.020;-1.740;2023-04-08T04:27:23;1.95;;;0.70;;
51451;SDS011;37521;52.020;-1.740;2023-04-08T04:29:51;0.55;;;0.50;;
51451;SDS011;37521;52.020;-1.740;2023-04-08T04:32:19;0.50;;;0.50;;
51451;SDS011;37521;52.020;-1.740;2023-04-08T04:34:48;0.30;;;0.30;;
51451;SDS011;37521;52.020;-1.740;2023-04-08T04:37:16;0.32;;;0.28;;
51451;SDS011;37521;52.020;-1.740;2023-04-08T04:39:44;0.55;;;0.50;;
51451;SDS011;37521;52.020;-1.740;2023-04-08T04:42:13;0.68;;;0.68;;
51451;SDS011;37521;52.020;-1.740;2023-04-08T04:44:42;0.65;;;0.50;;
51451;SDS011;37521;52.020;-1.740;2023-04-08T04:47:10;0.55;;;0.55;;
51451;SDS011;37521;52.020;-1.740;2023-04-08T04:49:38;0.52;;;0.50;;
51451;SDS011;37521;52.020;-1.740;2023-04-08T04:52:06;0.52;;;0.40;;
51451;SDS011;37521;52.020;-1.740;2023-04-08T04:54:34;0.47;;;0.35;;
51451;SDS011;37521;52.020;-1.740;2023-04-08T04:57:02;0.85;;;0.85;;
51451;SDS011;37521;52.020;-1.740;2023-04-08T04:59:32;0.65;;;0.32;;
51451;SDS011;37521;52.020;-1.740;2023-04-08T05:02:00;0.50;;;0.50;;
51451;SDS011;37521;52.020;-1.740;2023-04-08T05:04:28;0.73;;;0.70;;
51451;SDS011;37521;52.020;-1.740;2023-04-08T05:06:57;0.80;;;0.80;;
51451;SDS011;37521;52.020;-1.740;2023-04-08T05:09:27;3.00;;;0.60;;
51451;SDS011;37521;52.020;-1.740;2023-04-08T05:11:55;0.90;;;0.90;;
51451;SDS011;37521;52.020;-1.740;2023-04-08T05:14:24;0.85;;;0.70;;
51451;SDS011;37521;52.020;-1.740;2023-04-08T05:16:53;0.45;;;0.45;;
51451;SDS011;37521;52.020;-1.740;2023-04-08T05:19:21;1.83;;;0.95;;
51451;SDS011;37521;52.020;-1.740;2023-04-08T05:21:50;2.38;;;0.45;;
51451;SDS011;37521;52.020;-1.740;2023-04-08T05:24:18;0.57;;;0.57;;
51451;SDS011;37521;52.020;-1.740;2023-04-08T05:26:46;0.77;;;0.70;;
51451;SDS011;37521;52.020;-1.740;2023-04-08T05:29:17;1.13;;;0.45;;
51451;SDS011;37521;52.020;-1.740;2023-04-08T05:31:47;1.13;;;0.77;;
51451;SDS011;37521;52.020;-1.740;2023-04-08T05:34:16;1.27;;;0.70;;
51451;SDS011;37521;52.020;-1.740;2023-04-08T05:36:48;0.50;;;0.50;;
51451;SDS011;37521;52.020;-1.740;2023-04-08T05:39:18;1.08;;;0.80;;
51451;SDS011;37521;52.020;-1.740;2023-04-08T05:41:46;0.98;;;0.80;;
51451;SDS011;37521;52.020;-1.740;2023-04-08T05:44:15;1.42;;;0.75;;
51451;SDS011;37521;52.020;-1.740;2023-04-08T05:46:43;1.27;;;1.00;;
51451;SDS011;37521;52.020;-1.740;2023-04-08T05:49:11;1.05;;;0.73;;
51451;SDS011;37521;52.020;-1.740;2023-04-08T05:51:40;0.75;;;0.75;;
51451;SDS011;37521;52.020;-1.740;2023-04-08T05:54:09;0.88;;;0.75;;
51451;SDS011;37521;52.020;-1.740;2023-04-08T05:56:37;0.63;;;0.63;;
51451;SDS011;37521;52.020;-1.740;2023-04-08T05:59:05;0.93;;;0.63;;
51451;SDS011;37521;52.020;-1.740;2023-04-08T06:01:33;1.25;;;0.88;;
51451;SDS011;37521;52.020;-1.740;2023-04-08T06:04:02;0.68;;;0.68;;
51451;SDS011;37521;52.020;-1.740;2023-04-08T06:06:30;1.17;;;0.85;;
51451;SDS011;37521;52.020;-1.740;2023-04-08T06:08:59;1.77;;;1.15;;
51451;SDS011;37521;52.020;-1.740;2023-04-08T06:11:28;2.92;;;1.10;;
51451;SDS011;37521;52.020;-1.740;2023-04-08T06:13:56;2.15;;;0.98;;
51451;SDS011;37521;52.020;-1.740;2023-04-08T06:16:24;1.10;;;1.00;;
51451;SDS011;37521;52.020;-1.740;2023-04-08T06:18:52;1.08;;;0.88;;
51451;SDS011;37521;52.020;-1.740;2023-04-08T06:21:20;1.15;;;1.05;;
51451;SDS011;37521;52.020;-1.740;2023-04-08T06:23:49;1.30;;;1.20;;
51451;SDS011;37521;52.020;-1.740;2023-04-08T06:26:18;2.00;;;0.90;;
51451;SDS011;37521;52.020;-1.740;2023-04-08T06:28:46;1.33;;;1.00;;
51451;SDS011;37521;52.020;-1.740;2023-04-08T06:31:15;2.22;;;1.08;;
51451;SDS011;37521;52.020;-1.740;2023-04-08T06:33:43;1.75;;;1.65;;
51451;SDS011;37521;52.020;-1.740;2023-04-08T06:36:13;2.78;;;1.55;;
51451;SDS011;37521;52.020;-1.740;2023-04-08T06:38:41;1.95;;;1.30;;
51451;SDS011;37521;52.020;-1.740;2023-04-08T06:41:09;1.48;;;0.88;;
51451;SDS011;37521;52.020;-1.740;2023-04-08T06:43:39;0.90;;;0.90;;
51451;SDS011;37521;52.020;-1.740;2023-04-08T06:46:07;1.27;;;1.10;;
51451;SDS011;37521;52.020;-1.740;2023-04-08T06:48:35;2.25;;;1.00;;
51451;SDS011;37521;52.020;-1.740;2023-04-08T06:51:04;1.98;;;1.17;;
51451;SDS011;37521;52.020;-1.740;2023-04-08T06:53:33;1.38;;;1.30;;
51451;SDS011;37521;52.020;-1.740;2023-04-08T06:56:01;2.17;;;1.27;;
51451;SDS011;37521;52.020;-1.740;2023-04-08T06:58:29;2.05;;;1.10;;
51451;SDS011;37521;52.020;-1.740;2023-04-08T07:00:59;2.00;;;1.73;;
51451;SDS011;37521;52.020;-1.740;2023-04-08T07:03:28;1.05;;;0.65;;
51451;SDS011;37521;52.020;-1.740;2023-04-08T07:05:57;2.40;;;1.52;;
51451;SDS011;37521;52.020;-1.740;2023-04-08T07:08:25;1.20;;;1.10;;
51451;SDS011;37521;52.020;-1.740;2023-04-08T07:10:53;2.38;;;1.73;;
51451;SDS011;37521;52.020;-1.740;2023-04-08T07:13:22;5.32;;;2.33;;
51451;SDS011;37521;52.020;-1.740;2023-04-08T07:15:50;1.40;;;1.30;;
51451;SDS011;37521;52.020;-1.740;2023-04-08T07:18:20;4.28;;;2.03;;
51451;SDS011;37521;52.020;-1.740;2023-04-08T07:20:49;4.35;;;1.73;;
51451;SDS011;37521;52.020;-1.740;2023-04-08T07:23:19;5.72;;;2.15;;
51451;SDS011;37521;52.020;-1.740;2023-04-08T07:25:47;2.80;;;1.77;;
51451;SDS011;37521;52.020;-1.740;2023-04-08T07:28:16;2.47;;;1.83;;
51451;SDS011;37521;52.020;-1.740;2023-04-08T07:30:44;5.40;;;2.17;;
51451;SDS011;37521;52.020;-1.740;2023-04-08T07:33:12;2.55;;;1.92;;
51451;SDS011;37521;52.020;-1.740;2023-04-08T07:35:42;1.50;;;1.35;;
51451;SDS011;37521;52.020;-1.740;2023-04-08T07:38:10;5.57;;;1.85;;
51451;SDS011;37521;52.020;-1.740;2023-04-08T07:40:39;2.58;;;2.15;;
51451;SDS011;37521;52.020;-1.740;2023-04-08T07:43:07;2.53;;;2.15;;
51451;SDS011;37521;52.020;-1.740;2023-04-08T07:45:35;2.45;;;2.10;;
51451;SDS011;37521;52.020;-1.740;2023-04-08T07:48:03;1.85;;;1.73;;
51451;SDS011;37521;52.020;-1.740;2023-04-08T07:50:32;3.92;;;2.28;;
51451;SDS011;37521;52.020;-1.740;2023-04-08T07:53:21;6.43;;;2.95;;
51451;SDS011;37521;52.020;-1.740;2023-04-08T07:55:51;6.40;;;3.20;;
51451;SDS011;37521;52.020;-1.740;2023-04-08T07:58:20;5.72;;;2.85;;
51451;SDS011;37521;52.020;-1.740;2023-04-08T08:00:48;7.63;;;3.70;;
51451;SDS011;37521;52.020;-1.740;2023-04-08T08:03:16;7.95;;;3.45;;
51451;SDS011;37521;52.020;-1.740;2023-04-08T08:05:44;6.68;;;3.95;;
51451;SDS011;37521;52.020;-1.740;2023-04-08T08:08:12;9.00;;;3.45;;
51451;SDS011;37521;52.020;-1.740;2023-04-08T08:10:42;4.43;;;3.10;;
51451;SDS011;37521;52.020;-1.740;2023-04-08T08:13:10;6.32;;;4.10;;
51451;SDS011;37521;52.020;-1.740;2023-04-08T08:15:42;7.05;;;4.22;;
51451;SDS011;37521;52.020;-1.740;2023-04-08T08:18:10;4.88;;;3.88;;
51451;SDS011;37521;52.020;-1.740;2023-04-08T08:20:39;5.70;;;4.20;;
51451;SDS011;37521;52.020;-1.740;2023-04-08T08:23:07;5.90;;;4.40;;
51451;SDS011;37521;52.020;-1.740;2023-04-08T08:25:35;7.78;;;4.10;;
51451;SDS011;37521;52.020;-1.740;2023-04-08T08:28:04;6.05;;;3.92;;
51451;SDS011;37521;52.020;-1.740;2023-04-08T08:30:32;8.95;;;4.78;;
51451;SDS011;37521;52.020;-1.740;2023-04-08T08:33:00;7.35;;;4.53;;
51451;SDS011;37521;52.020;-1.740;2023-04-08T08:35:29;6.65;;;4.68;;
51451;SDS011;37521;52.020;-1.740;2023-04-08T08:37:57;7.65;;;4.57;;
51451;SDS011;37521;52.020;-1.740;2023-04-08T08:40:25;8.80;;;5.28;;
51451;SDS011;37521;52.020;-1.740;2023-04-08T08:42:53;7.72;;;4.63;;
51451;SDS011;37521;52.020;-1.740;2023-04-08T08:45:25;7.88;;;5.80;;
51451;SDS011;37521;52.020;-1.740;2023-04-08T08:47:54;8.45;;;5.45;;
51451;SDS011;37521;52.020;-1.740;2023-04-08T08:50:23;11.80;;;6.38;;
51451;SDS011;37521;52.020;-1.740;2023-04-08T08:52:51;8.25;;;5.10;;
51451;SDS011;37521;52.020;-1.740;2023-04-08T08:55:20;7.00;;;4.47;;
51451;SDS011;37521;52.020;-1.740;2023-04-08T08:57:52;8.15;;;5.13;;
51451;SDS011;37521;52.020;-1.740;2023-04-08T09:00:31;10.70;;;5.80;;
51451;SDS011;37521;52.020;-1.740;2023-04-08T09:05:48;10.68;;;5.38;;
51451;SDS011;37521;52.020;-1.740;2023-04-08T09:08:24;9.80;;;5.40;;
51451;SDS011;37521;52.020;-1.740;2023-04-08T09:10:54;7.88;;;4.53;;
51451;SDS011;37521;52.020;-1.740;2023-04-08T09:13:23;9.95;;;4.45;;
51451;SDS011;37521;52.020;-1.740;2023-04-08T09:18:42;8.55;;;3.70;;
51451;SDS011;37521;52.020;-1.740;2023-04-08T09:21:11;5.85;;;3.90;;
51451;SDS011;37521;52.020;-1.740;2023-04-08T09:23:41;8.02;;;4.70;;
51451;SDS011;37521;52.020;-1.740;2023-04-08T09:26:11;8.50;;;4.38;;
51451;SDS011;37521;52.020;-1.740;2023-04-08T09:28:41;6.40;;;4.07;;
51451;SDS011;37521;52.020;-1.740;2023-04-08T09:33:59;6.32;;;3.83;;
51451;SDS011;37521;52.020;-1.740;2023-04-08T09:36:35;10.32;;;3.67;;
51451;SDS011;37521;52.020;-1.740;2023-04-08T09:39:04;5.05;;;3.63;;
51451;SDS011;37521;52.020;-1.740;2023-04-08T09:41:33;7.45;;;3.70;;
51451;SDS011;37521;52.020;-1.740;2023-04-08T09:44:03;4.88;;;3.33;;
51451;SDS011;37521;52.020;-1.740;2023-04-08T09:46:35;7.05;;;3.90;;
51451;SDS011;37521;52.020;-1.740;2023-04-08T09:49:09;6.10;;;4.03;;
51451;SDS011;37521;52.020;-1.740;2023-04-08T09:51:40;7.25;;;3.88;;
51451;SDS011;37521;52.020;-1.740;2023-04-08T09:54:20;4.85;;;3.60;;
51451;SDS011;37521;52.020;-1.740;2023-04-08T09:56:53;8.07;;;4.35;;
51451;SDS011;37521;52.020;-1.740;2023-04-08T09:59:29;5.88;;;3.70;;
51451;SDS011;37521;52.020;-1.740;2023-04-08T10:02:04;5.18;;;3.78;;
51451;SDS011;37521;52.020;-1.740;2023-04-08T10:04:37;5.68;;;3.53;;
51451;SDS011;37521;52.020;-1.740;2023-04-08T10:07:08;3.08;;;2.75;;
51451;SDS011;37521;52.020;-1.740;2023-04-08T10:09:36;2.55;;;2.17;;
51451;SDS011;37521;52.020;-1.740;2023-04-08T10:12:07;2.75;;;2.55;;
51451;SDS011;37521;52.020;-1.740;2023-04-08T10:14:35;4.45;;;2.17;;
51451;SDS011;37521;52.020;-1.740;2023-04-08T10:19:53;1.92;;;1.77;;
51451;SDS011;37521;52.020;-1.740;2023-04-08T10:28:22;5.10;;;2.17;;
51451;SDS011;37521;52.020;-1.740;2023-04-08T10:30:51;2.25;;;1.88;;
51451;SDS011;37521;52.020;-1.740;2023-04-08T10:33:22;2.10;;;1.67;;
51451;SDS011;37521;52.020;-1.740;2023-04-08T10:35:52;1.95;;;1.77;;
51451;SDS011;37521;52.020;-1.740;2023-04-08T10:38:21;3.20;;;1.63;;
51451;SDS011;37521;52.020;-1.740;2023-04-08T10:40:49;2.00;;;1.80;;
51451;SDS011;37521;52.020;-1.740;2023-04-08T10:43:19;3.58;;;1.60;;
51451;SDS011;37521;52.020;-1.740;2023-04-08T10:45:47;1.30;;;1.20;;
51451;SDS011;37521;52.020;-1.740;2023-04-08T10:48:17;2.95;;;1.13;;
51451;SDS011;37521;52.020;-1.740;2023-04-08T10:50:55;3.38;;;2.10;;
51451;SDS011;37521;52.020;-1.740;2023-04-08T10:53:27;2.08;;;1.88;;
51451;SDS011;37521;52.020;-1.740;2023-04-08T10:58:46;1.08;;;0.98;;
51451;SDS011;37521;52.020;-1.740;2023-04-08T11:01:16;3.17;;;2.10;;
51451;SDS011;37521;52.020;-1.740;2023-04-08T11:03:44;2.92;;;1.80;;
51451;SDS011;37521;52.020;-1.740;2023-04-08T11:06:14;1.83;;;1.20;;
51451;SDS011;37521;52.020;-1.740;2023-04-08T11:08:42;1.02;;;0.93;;
51451;SDS011;37521;52.020;-1.740;2023-04-08T11:11:11;1.42;;;1.23;;
51451;SDS011;37521;52.020;-1.740;2023-04-08T11:13:39;1.02;;;0.85;;
51451;SDS011;37521;52.020;-1.740;2023-04-08T11:16:19;2.05;;;1.52;;
51451;SDS011;37521;52.020;-1.740;2023-04-08T11:18:49;3.63;;;1.08;;
51451;SDS011;37521;52.020;-1.740;2023-04-08T11:21:24;3.13;;;1.13;;
51451;SDS011;37521;52.020;-1.740;2023-04-08T11:23:59;2.53;;;1.60;;
51451;SDS011;37521;52.020;-1.740;2023-04-08T11:26:37;2.13;;;0.90;;
51451;SDS011;37521;52.020;-1.740;2023-04-08T11:29:08;1.35;;;1.10;;
51451;SDS011;37521;52.020;-1.740;2023-04-08T11:31:40;0.80;;;0.80;;
51451;SDS011;37521;52.020;-1.740;2023-04-08T11:34:10;1.08;;;1.02;;
51451;SDS011;37521;52.020;-1.740;2023-04-08T11:36:40;2.35;;;0.88;;
51451;SDS011;37521;52.020;-1.740;2023-04-08T11:39:08;1.65;;;1.25;;
51451;SDS011;37521;52.020;-1.740;2023-04-08T11:41:38;1.38;;;1.27;;
51451;SDS011;37521;52.020;-1.740;2023-04-08T11:44:06;0.98;;;0.95;;
51451;SDS011;37521;52.020;-1.740;2023-04-08T11:46:35;1.10;;;1.02;;
51451;SDS011;37521;52.020;-1.740;2023-04-08T11:49:04;0.85;;;0.73;;
51451;SDS011;37521;52.020;-1.740;2023-04-08T11:51:34;1.17;;;0.93;;
51451;SDS011;37521;52.020;-1.740;2023-04-08T11:54:27;1.23;;;0.80;;
51451;SDS011;37521;52.020;-1.740;2023-04-08T11:56:56;2.80;;;1.20;;
51451;SDS011;37521;52.020;-1.740;2023-04-08T11:59:25;3.22;;;1.40;;
51451;SDS011;37521;52.020;-1.740;2023-04-08T12:01:55;1.75;;;1.05;;
51451;SDS011;37521;52.020;-1.740;2023-04-08T12:04:24;1.30;;;1.20;;
51451;SDS011;37521;52.020;-1.740;2023-04-08T12:06:53;1.90;;;1.20;;
51451;SDS011;37521;52.020;-1.740;2023-04-08T12:09:23;1.48;;;1.15;;
51451;SDS011;37521;52.020;-1.740;2023-04-08T12:11:54;3.00;;;1.20;;
51451;SDS011;37521;52.020;-1.740;2023-04-08T12:14:23;0.90;;;0.85;;
51451;SDS011;37521;52.020;-1.740;2023-04-08T12:16:53;1.48;;;0.88;;
51451;SDS011;37521;52.020;-1.740;2023-04-08T12:19:22;0.65;;;0.65;;
51451;SDS011;37521;52.020;-1.740;2023-04-08T12:21:50;1.65;;;1.10;;
51451;SDS011;37521;52.020;-1.740;2023-04-08T12:24:18;2.35;;;1.00;;
51451;SDS011;37521;52.020;-1.740;2023-04-08T12:26:46;1.50;;;1.20;;
51451;SDS011;37521;52.020;-1.740;2023-04-08T12:29:15;2.00;;;1.30;;
51451;SDS011;37521;52.020;-1.740;2023-04-08T12:31:44;3.83;;;1.25;;
51451;SDS011;37521;52.020;-1.740;2023-04-08T12:34:12;1.05;;;1.00;;
51451;SDS011;37521;52.020;-1.740;2023-04-08T12:36:40;2.25;;;1.23;;
51451;SDS011;37521;52.020;-1.740;2023-04-08T12:39:08;1.05;;;0.98;;
51451;SDS011;37521;52.020;-1.740;2023-04-08T12:41:36;1.33;;;1.08;;
51451;SDS011;37521;52.020;-1.740;2023-04-08T12:44:04;1.15;;;0.90;;
51451;SDS011;37521;52.020;-1.740;2023-04-08T12:46:34;1.27;;;1.10;;
51451;SDS011;37521;52.020;-1.740;2023-04-08T12:49:02;4.38;;;1.42;;
51451;SDS011;37521;52.020;-1.740;2023-04-08T12:51:32;1.65;;;1.08;;
51451;SDS011;37521;52.020;-1.740;2023-04-08T12:54:01;2.88;;;1.33;;
51451;SDS011;37521;52.020;-1.740;2023-04-08T12:56:29;1.63;;;1.15;;
51451;SDS011;37521;52.020;-1.740;2023-04-08T12:58:58;1.38;;;0.80;;
51451;SDS011;37521;52.020;-1.740;2023-04-08T13:01:27;1.15;;;0.73;;
51451;SDS011;37521;52.020;-1.740;2023-04-08T13:03:58;0.70;;;0.63;;
51451;SDS011;37521;52.020;-1.740;2023-04-08T13:06:26;3.45;;;1.00;;
51451;SDS011;37521;52.020;-1.740;2023-04-08T13:08:54;1.88;;;1.35;;
51451;SDS011;37521;52.020;-1.740;2023-04-08T13:11:22;0.75;;;0.75;;
51451;SDS011;37521;52.020;-1.740;2023-04-08T13:13:50;1.13;;;1.00;;
51451;SDS011;37521;52.020;-1.740;2023-04-08T13:16:19;2.80;;;1.00;;
51451;SDS011;37521;52.020;-1.740;2023-04-08T13:18:47;1.38;;;1.20;;
51451;SDS011;37521;52.020;-1.740;2023-04-08T13:21:17;1.58;;;1.20;;
51451;SDS011;37521;52.020;-1.740;2023-04-08T13:23:45;2.05;;;1.20;;
51451;SDS011;37521;52.020;-1.740;2023-04-08T13:26:14;3.58;;;1.30;;
51451;SDS011;37521;52.020;-1.740;2023-04-08T13:28:42;2.35;;;1.17;;
51451;SDS011;37521;52.020;-1.740;2023-04-08T13:31:15;1.75;;;0.98;;
51451;SDS011;37521;52.020;-1.740;2023-04-08T13:33:43;1.15;;;0.85;;
51451;SDS011;37521;52.020;-1.740;2023-04-08T13:36:11;2.40;;;1.30;;
51451;SDS011;37521;52.020;-1.740;2023-04-08T13:38:41;1.65;;;1.33;;
51451;SDS011;37521;52.020;-1.740;2023-04-08T13:41:11;2.25;;;1.30;;
51451;SDS011;37521;52.020;-1.740;2023-04-08T13:43:39;1.92;;;1.17;;
51451;SDS011;37521;52.020;-1.740;2023-04-08T13:46:08;1.58;;;0.98;;
51451;SDS011;37521;52.020;-1.740;2023-04-08T13:48:37;1.33;;;1.05;;
51451;SDS011;37521;52.020;-1.740;2023-04-08T13:51:05;0.70;;;0.70;;
51451;SDS011;37521;52.020;-1.740;2023-04-08T13:53:33;2.13;;;1.30;;
51451;SDS011;37521;52.020;-1.740;2023-04-08T13:56:03;1.20;;;1.10;;
51451;SDS011;37521;52.020;-1.740;2023-04-08T13:58:32;1.70;;;1.55;;
51451;SDS011;37521;52.020;-1.740;2023-04-08T14:01:00;1.52;;;0.95;;
51451;SDS011;37521;52.020;-1.740;2023-04-08T14:03:28;1.08;;;1.02;;
51451;SDS011;37521;52.020;-1.740;2023-04-08T14:05:56;1.73;;;1.60;;
51451;SDS011;37521;52.020;-1.740;2023-04-08T14:08:27;2.97;;;1.30;;
51451;SDS011;37521;52.020;-1.740;2023-04-08T14:10:55;1.30;;;1.20;;
51451;SDS011;37521;52.020;-1.740;2023-04-08T14:13:25;1.42;;;1.10;;
51451;SDS011;37521;52.020;-1.740;2023-04-08T14:15:53;4.25;;;1.58;;
51451;SDS011;37521;52.020;-1.740;2023-04-08T14:18:24;2.55;;;1.25;;
51451;SDS011;37521;52.020;-1.740;2023-04-08T14:20:52;1.42;;;1.10;;
51451;SDS011;37521;52.020;-1.740;2023-04-08T14:23:21;1.88;;;1.27;;
51451;SDS011;37521;52.020;-1.740;2023-04-08T14:25:49;3.42;;;1.70;;
51451;SDS011;37521;52.020;-1.740;2023-04-08T14:28:18;4.53;;;1.52;;
51451;SDS011;37521;52.020;-1.740;2023-04-08T14:30:47;2.67;;;1.52;;
51451;SDS011;37521;52.020;-1.740;2023-04-08T14:33:15;2.10;;;1.55;;
51451;SDS011;37521;52.020;-1.740;2023-04-08T14:35:44;1.67;;;1.27;;
51451;SDS011;37521;52.020;-1.740;2023-04-08T14:38:13;1.45;;;1.35;;
51451;SDS011;37521;52.020;-1.740;2023-04-08T14:40:41;1.35;;;1.10;;
51451;SDS011;37521;52.020;-1.740;2023-04-08T14:43:09;1.35;;;1.25;;
51451;SDS011;37521;52.020;-1.740;2023-04-08T14:45:38;1.80;;;0.82;;
51451;SDS011;37521;52.020;-1.740;2023-04-08T14:48:07;2.30;;;1.00;;
51451;SDS011;37521;52.020;-1.740;2023-04-08T14:50:36;1.50;;;1.20;;
51451;SDS011;37521;52.020;-1.740;2023-04-08T14:53:04;2.47;;;1.25;;
51451;SDS011;37521;52.020;-1.740;2023-04-08T14:55:32;2.83;;;1.20;;
51451;SDS011;37521;52.020;-1.740;2023-04-08T14:58:00;1.40;;;1.15;;
51451;SDS011;37521;52.020;-1.740;2023-04-08T15:00:28;1.20;;;1.10;;
51451;SDS011;37521;52.020;-1.740;2023-04-08T15:02:56;1.80;;;1.05;;
51451;SDS011;37521;52.020;-1.740;2023-04-08T15:05:26;0.85;;;0.85;;